sensor_id;sensor_type;location;lat;lon;timestamp;P1;durP1;ratioP1;P2;durP2;ratioP2
58472;SDS011;44775;51.564;5.460;2024-02-23T16:39:56;4.47;;;1.55;;
58472;SDS011;44775;51.564;5.460;2024-02-23T16:42:21;3.92;;;1.65;;
58472;SDS011;44775;51.564;5.460;2024-02-23T16:44:47;6.13;;;2.20;;
58472;SDS011;44775;51.564;5.460;2024-02-23T16:47:12;5.65;;;2.10;;
58472;SDS011;44775;51.564;5.460;2024-02-23T16:49:38;4.65;;;2.00;;
58472;SDS011;44775;51.564;5.460;2024-02-23T16:52:03;4.03;;;2.00;;
58472;SDS011;44775;51.564;5.460;2024-02-23T16:54:29;6.45;;;2.55;;
58472;SDS011;44775;51.564;5.460;2024-02-23T16:56:54;7.97;;;2.63;;
58472;SDS011;44775;51.564;5.460;2024-02-23T16:59:19;7.70;;;2.80;;
58472;SDS011;44775;51.564;5.460;2024-02-23T17:01:45;5.45;;;2.50;;
58472;SDS011;44775;51.564;5.460;2024-02-23T17:04:10;6.70;;;2.30;;
58472;SDS011;44775;51.564;5.460;2024-02-23T17:06:35;4.95;;;2.10;;
58472;SDS011;44775;51.564;5.460;2024-02-23T17:09:01;6.05;;;2.42;;
58472;SDS011;44775;51.564;5.460;2024-02-23T17:11:26;6.68;;;2.35;;
58472;SDS011;44775;51.564;5.460;2024-02-23T17:13:51;7.68;;;2.58;;
58472;SDS011;44775;51.564;5.460;2024-02-23T17:16:18;4.28;;;1.88;;
58472;SDS011;44775;51.564;5.460;2024-02-23T17:18:49;7.90;;;2.65;;
58472;SDS011;44775;51.564;5.460;2024-02-23T17:21:14;7.13;;;3.00;;
58472;SDS011;44775;51.564;5.460;2024-02-23T17:23:40;4.15;;;2.00;;
58472;SDS011;44775;51.564;5.460;2024-02-23T17:26:05;11.15;;;3.97;;
58472;SDS011;44775;51.564;5.460;2024-02-23T17:28:30;2.55;;;1.73;;
58472;SDS011;44775;51.564;5.460;2024-02-23T17:30:56;11.75;;;4.28;;
58472;SDS011;44775;51.564;5.460;2024-02-23T17:33:21;5.30;;;1.98;;
58472;SDS011;44775;51.564;5.460;2024-02-23T17:35:47;9.07;;;3.00;;
58472;SDS011;44775;51.564;5.460;2024-02-23T17:38:12;5.18;;;2.42;;
58472;SDS011;44775;51.564;5.460;2024-02-23T17:40:38;13.10;;;4.63;;
58472;SDS011;44775;51.564;5.460;2024-02-23T17:43:03;7.75;;;3.38;;
58472;SDS011;44775;51.564;5.460;2024-02-23T17:45:28;10.57;;;4.68;;
58472;SDS011;44775;51.564;5.460;2024-02-23T17:47:54;7.25;;;3.55;;
58472;SDS011;44775;51.564;5.460;2024-02-23T17:50:19;8.02;;;3.45;;
58472;SDS011;44775;51.564;5.460;2024-02-23T17:52:45;6.80;;;3.03;;
58472;SDS011;44775;51.564;5.460;2024-02-23T17:55:10;7.55;;;3.47;;
58472;SDS011;44775;51.564;5.460;2024-02-23T17:57:35;6.72;;;2.92;;
58472;SDS011;44775;51.564;5.460;2024-02-23T18:00:00;6.25;;;2.70;;
58472;SDS011;44775;51.564;5.460;2024-02-23T18:02:28;10.82;;;3.25;;
58472;SDS011;44775;51.564;5.460;2024-02-23T18:04:53;6.75;;;2.60;;
58472;SDS011;44775;51.564;5.460;2024-02-23T18:07:18;6.68;;;2.60;;
58472;SDS011;44775;51.564;5.460;2024-02-23T18:09:44;11.60;;;4.38;;
58472;SDS011;44775;51.564;5.460;2024-02-23T18:12:09;8.13;;;4.28;;
58472;SDS011;44775;51.564;5.460;2024-02-23T18:14:34;4.13;;;2.70;;
58472;SDS011;44775;51.564;5.460;2024-02-23T18:17:00;8.43;;;4.43;;
58472;SDS011;44775;51.564;5.460;2024-02-23T18:19:25;7.47;;;4.22;;
58472;SDS011;44775;51.564;5.460;2024-02-23T18:21:51;6.25;;;3.33;;
58472;SDS011;44775;51.564;5.460;2024-02-23T18:24:16;6.78;;;4.13;;
58472;SDS011;44775;51.564;5.460;2024-02-23T18:26:41;11.88;;;5.80;;
58472;SDS011;44775;51.564;5.460;2024-02-23T18:29:06;11.73;;;4.55;;
58472;SDS011;44775;51.564;5.460;2024-02-23T18:31:32;7.25;;;3.25;;
58472;SDS011;44775;51.564;5.460;2024-02-23T18:33:57;8.07;;;4.30;;
58472;SDS011;44775;51.564;5.460;2024-02-23T18:36:23;5.88;;;3.80;;
58472;SDS011;44775;51.564;5.460;2024-02-23T18:38:48;6.50;;;3.92;;
58472;SDS011;44775;51.564;5.460;2024-02-23T18:41:14;6.82;;;3.58;;
58472;SDS011;44775;51.564;5.460;2024-02-23T18:43:42;8.10;;;4.20;;
58472;SDS011;44775;51.564;5.460;2024-02-23T18:46:07;11.52;;;5.38;;
58472;SDS011;44775;51.564;5.460;2024-02-23T18:48:34;12.70;;;6.15;;
58472;SDS011;44775;51.564;5.460;2024-02-23T18:51:03;6.60;;;4.57;;
58472;SDS011;44775;51.564;5.460;2024-02-23T18:53:29;10.07;;;5.43;;
58472;SDS011;44775;51.564;5.460;2024-02-23T18:55:54;8.25;;;4.97;;
58472;SDS011;44775;51.564;5.460;2024-02-23T18:58:19;9.05;;;4.32;;
58472;SDS011;44775;51.564;5.460;2024-02-23T19:00:45;8.07;;;4.47;;
58472;SDS011;44775;51.564;5.460;2024-02-23T19:03:10;6.35;;;3.50;;
58472;SDS011;44775;51.564;5.460;2024-02-23T19:05:36;8.82;;;4.30;;
58472;SDS011;44775;51.564;5.460;2024-02-23T19:08:01;7.18;;;3.90;;
58472;SDS011;44775;51.564;5.460;2024-02-23T19:10:27;8.18;;;4.05;;
58472;SDS011;44775;51.564;5.460;2024-02-23T19:12:53;10.05;;;4.32;;
58472;SDS011;44775;51.564;5.460;2024-02-23T19:15:18;9.48;;;4.47;;
58472;SDS011;44775;51.564;5.460;2024-02-23T19:17:44;8.13;;;4.10;;
58472;SDS011;44775;51.564;5.460;2024-02-23T19:20:09;6.40;;;3.92;;
58472;SDS011;44775;51.564;5.460;2024-02-23T19:22:38;6.88;;;3.47;;
58472;SDS011;44775;51.564;5.460;2024-02-23T19:25:06;5.32;;;2.90;;
58472;SDS011;44775;51.564;5.460;2024-02-23T19:27:35;6.47;;;3.97;;
58472;SDS011;44775;51.564;5.460;2024-02-23T19:30:01;9.73;;;3.80;;
58472;SDS011;44775;51.564;5.460;2024-02-23T19:32:28;6.93;;;3.70;;
58472;SDS011;44775;51.564;5.460;2024-02-23T19:34:53;7.90;;;3.70;;
58472;SDS011;44775;51.564;5.460;2024-02-23T19:37:19;7.78;;;3.97;;
58472;SDS011;44775;51.564;5.460;2024-02-23T19:39:44;7.93;;;3.80;;
58472;SDS011;44775;51.564;5.460;2024-02-23T19:42:10;10.45;;;3.70;;
58472;SDS011;44775;51.564;5.460;2024-02-23T19:44:35;8.23;;;3.50;;
58472;SDS011;44775;51.564;5.460;2024-02-23T19:47:00;7.60;;;3.50;;
58472;SDS011;44775;51.564;5.460;2024-02-23T19:49:26;7.53;;;3.20;;
58472;SDS011;44775;51.564;5.460;2024-02-23T19:51:51;7.03;;;3.33;;
58472;SDS011;44775;51.564;5.460;2024-02-23T19:54:17;8.38;;;3.40;;
58472;SDS011;44775;51.564;5.460;2024-02-23T19:56:43;5.38;;;3.40;;
58472;SDS011;44775;51.564;5.460;2024-02-23T19:59:08;5.20;;;3.30;;
58472;SDS011;44775;51.564;5.460;2024-02-23T20:01:33;5.28;;;3.20;;
58472;SDS011;44775;51.564;5.460;2024-02-23T20:03:58;9.40;;;4.20;;
58472;SDS011;44775;51.564;5.460;2024-02-23T20:06:24;6.85;;;3.65;;
58472;SDS011;44775;51.564;5.460;2024-02-23T20:08:49;5.35;;;3.90;;
58472;SDS011;44775;51.564;5.460;2024-02-23T20:11:14;10.25;;;4.20;;
58472;SDS011;44775;51.564;5.460;2024-02-23T20:13:39;6.32;;;4.13;;
58472;SDS011;44775;51.564;5.460;2024-02-23T20:16:05;5.82;;;4.13;;
58472;SDS011;44775;51.564;5.460;2024-02-23T20:18:30;6.78;;;3.90;;
58472;SDS011;44775;51.564;5.460;2024-02-23T20:20:56;5.47;;;3.70;;
58472;SDS011;44775;51.564;5.460;2024-02-23T20:23:21;5.78;;;3.80;;
58472;SDS011;44775;51.564;5.460;2024-02-23T20:25:47;6.35;;;3.20;;
58472;SDS011;44775;51.564;5.460;2024-02-23T20:28:12;8.38;;;3.75;;
58472;SDS011;44775;51.564;5.460;2024-02-23T20:30:37;6.38;;;3.20;;
58472;SDS011;44775;51.564;5.460;2024-02-23T20:33:03;5.70;;;2.97;;
58472;SDS011;44775;51.564;5.460;2024-02-23T20:35:28;4.68;;;3.58;;
58472;SDS011;44775;51.564;5.460;2024-02-23T20:38:01;3.95;;;3.00;;
58472;SDS011;44775;51.564;5.460;2024-02-23T20:40:26;3.78;;;3.05;;
58472;SDS011;44775;51.564;5.460;2024-02-23T20:42:51;7.05;;;3.40;;
58472;SDS011;44775;51.564;5.460;2024-02-23T20:45:17;6.65;;;3.58;;
58472;SDS011;44775;51.564;5.460;2024-02-23T20:47:42;6.15;;;3.83;;
58472;SDS011;44775;51.564;5.460;2024-02-23T20:50:08;6.20;;;3.40;;
58472;SDS011;44775;51.564;5.460;2024-02-23T20:52:34;6.80;;;3.00;;
58472;SDS011;44775;51.564;5.460;2024-02-23T20:55:00;5.47;;;2.92;;
58472;SDS011;44775;51.564;5.460;2024-02-23T20:57:25;7.40;;;3.10;;
58472;SDS011;44775;51.564;5.460;2024-02-23T20:59:50;6.13;;;3.20;;
58472;SDS011;44775;51.564;5.460;2024-02-23T21:02:16;5.72;;;3.00;;
58472;SDS011;44775;51.564;5.460;2024-02-23T21:04:46;5.57;;;3.40;;
58472;SDS011;44775;51.564;5.460;2024-02-23T21:07:11;6.32;;;3.35;;
58472;SDS011;44775;51.564;5.460;2024-02-23T21:09:37;4.72;;;3.00;;
58472;SDS011;44775;51.564;5.460;2024-02-23T21:12:02;5.57;;;3.45;;
58472;SDS011;44775;51.564;5.460;2024-02-23T21:14:28;5.72;;;2.95;;
58472;SDS011;44775;51.564;5.460;2024-02-23T21:16:53;5.07;;;3.13;;
58472;SDS011;44775;51.564;5.460;2024-02-23T21:19:18;5.80;;;3.33;;
58472;SDS011;44775;51.564;5.460;2024-02-23T21:21:44;6.95;;;3.85;;
58472;SDS011;44775;51.564;5.460;2024-02-23T21:24:09;4.43;;;3.50;;
58472;SDS011;44775;51.564;5.460;2024-02-23T21:26:34;5.22;;;3.45;;
58472;SDS011;44775;51.564;5.460;2024-02-23T21:29:00;6.22;;;4.20;;
58472;SDS011;44775;51.564;5.460;2024-02-23T21:31:26;6.25;;;3.55;;
58472;SDS011;44775;51.564;5.460;2024-02-23T21:33:51;4.80;;;3.38;;
58472;SDS011;44775;51.564;5.460;2024-02-23T21:36:18;5.72;;;4.15;;
58472;SDS011;44775;51.564;5.460;2024-02-23T21:38:45;4.30;;;3.10;;
58472;SDS011;44775;51.564;5.460;2024-02-23T21:41:10;3.95;;;2.60;;
58472;SDS011;44775;51.564;5.460;2024-02-23T21:43:36;3.63;;;2.60;;
58472;SDS011;44775;51.564;5.460;2024-02-23T21:46:01;6.28;;;2.90;;
58472;SDS011;44775;51.564;5.460;2024-02-23T21:48:26;5.85;;;3.42;;
58472;SDS011;44775;51.564;5.460;2024-02-23T21:50:51;4.32;;;2.70;;
58472;SDS011;44775;51.564;5.460;2024-02-23T21:53:17;8.52;;;3.67;;
58472;SDS011;44775;51.564;5.460;2024-02-23T21:55:42;4.72;;;2.78;;
58472;SDS011;44775;51.564;5.460;2024-02-23T21:58:07;8.60;;;3.80;;
58472;SDS011;44775;51.564;5.460;2024-02-23T22:00:32;5.40;;;2.70;;
58472;SDS011;44775;51.564;5.460;2024-02-23T22:02:58;5.25;;;2.45;;
58472;SDS011;44775;51.564;5.460;2024-02-23T22:05:28;3.10;;;2.17;;
58472;SDS011;44775;51.564;5.460;2024-02-23T22:07:54;4.97;;;2.72;;
58472;SDS011;44775;51.564;5.460;2024-02-23T22:10:20;3.85;;;2.35;;
58472;SDS011;44775;51.564;5.460;2024-02-23T22:12:45;3.88;;;2.55;;
58472;SDS011;44775;51.564;5.460;2024-02-23T22:15:10;3.85;;;2.20;;
58472;SDS011;44775;51.564;5.460;2024-02-23T22:17:36;3.63;;;2.20;;
58472;SDS011;44775;51.564;5.460;2024-02-23T22:20:03;3.78;;;2.30;;
58472;SDS011;44775;51.564;5.460;2024-02-23T22:22:28;3.95;;;2.20;;
58472;SDS011;44775;51.564;5.460;2024-02-23T22:24:55;2.70;;;2.13;;
58472;SDS011;44775;51.564;5.460;2024-02-23T22:27:23;4.97;;;2.30;;
58472;SDS011;44775;51.564;5.460;2024-02-23T22:29:48;4.15;;;2.20;;
58472;SDS011;44775;51.564;5.460;2024-02-23T22:32:15;2.25;;;2.00;;
58472;SDS011;44775;51.564;5.460;2024-02-23T22:34:41;2.60;;;2.00;;
58472;SDS011;44775;51.564;5.460;2024-02-23T22:37:06;2.88;;;2.08;;
58472;SDS011;44775;51.564;5.460;2024-02-23T22:39:31;2.40;;;1.80;;
58472;SDS011;44775;51.564;5.460;2024-02-23T22:41:57;4.35;;;2.30;;
58472;SDS011;44775;51.564;5.460;2024-02-23T22:44:22;2.60;;;2.40;;
58472;SDS011;44775;51.564;5.460;2024-02-23T22:46:47;2.30;;;2.10;;
58472;SDS011;44775;51.564;5.460;2024-02-23T22:49:13;3.78;;;2.28;;
58472;SDS011;44775;51.564;5.460;2024-02-23T22:51:41;2.60;;;1.90;;
58472;SDS011;44775;51.564;5.460;2024-02-23T22:54:08;3.15;;;2.00;;
58472;SDS011;44775;51.564;5.460;2024-02-23T22:56:33;4.18;;;2.40;;
58472;SDS011;44775;51.564;5.460;2024-02-23T22:59:01;3.05;;;2.38;;
58472;SDS011;44775;51.564;5.460;2024-02-23T23:01:33;4.38;;;2.40;;
58472;SDS011;44775;51.564;5.460;2024-02-23T23:03:58;3.13;;;2.35;;
58472;SDS011;44775;51.564;5.460;2024-02-23T23:06:24;3.75;;;2.97;;
58472;SDS011;44775;51.564;5.460;2024-02-23T23:08:49;3.65;;;2.75;;
58472;SDS011;44775;51.564;5.460;2024-02-23T23:11:14;6.35;;;2.72;;
58472;SDS011;44775;51.564;5.460;2024-02-23T23:13:40;3.50;;;2.80;;
58472;SDS011;44775;51.564;5.460;2024-02-23T23:16:06;4.25;;;2.70;;
58472;SDS011;44775;51.564;5.460;2024-02-23T23:18:31;3.92;;;2.88;;
58472;SDS011;44775;51.564;5.460;2024-02-23T23:20:56;5.07;;;3.10;;
58472;SDS011;44775;51.564;5.460;2024-02-23T23:23:22;5.75;;;3.55;;
58472;SDS011;44775;51.564;5.460;2024-02-23T23:25:47;5.32;;;3.35;;
58472;SDS011;44775;51.564;5.460;2024-02-23T23:28:12;5.63;;;3.75;;
58472;SDS011;44775;51.564;5.460;2024-02-23T23:30:37;4.15;;;3.40;;
58472;SDS011;44775;51.564;5.460;2024-02-23T23:33:03;5.25;;;3.78;;
58472;SDS011;44775;51.564;5.460;2024-02-23T23:35:29;5.63;;;3.60;;
58472;SDS011;44775;51.564;5.460;2024-02-23T23:37:54;10.57;;;4.20;;
58472;SDS011;44775;51.564;5.460;2024-02-23T23:40:20;5.88;;;4.00;;
58472;SDS011;44775;51.564;5.460;2024-02-23T23:42:45;5.57;;;3.72;;
58472;SDS011;44775;51.564;5.460;2024-02-23T23:45:11;8.65;;;3.60;;
58472;SDS011;44775;51.564;5.460;2024-02-23T23:47:36;5.28;;;3.55;;
58472;SDS011;44775;51.564;5.460;2024-02-23T23:50:02;4.38;;;3.38;;
58472;SDS011;44775;51.564;5.460;2024-02-23T23:52:27;5.25;;;3.50;;
58472;SDS011;44775;51.564;5.460;2024-02-23T23:54:52;4.50;;;3.80;;
58472;SDS011;44775;51.564;5.460;2024-02-23T23:57:17;7.07;;;3.22;;
58472;SDS011;44775;51.564;5.460;2024-02-23T23:59:43;6.45;;;3.58;;
